<?xml version="1.0" encoding="UTF-8" standalone="no" ?>
<gpx xmlns="http://www.topografix.com/GPX/1/1" xmlns:xsi="http://www.w3.org/2001/XMLSchema-instance" xsi:schemaLocation="http://www.topografix.com/GPX/1/1 http://www.topografix.com/GPX/1/1/gpx.xsd" version="1.1" creator="VisuGPX - https://www.visugpx.com">
  <metadata>
    <name>2021-11-22 14:00:54</name>
    <desc><![CDATA[
Rando du 22 nov 2021 avec Raymonde et Sylvie]]></desc>
  </metadata>
  <wpt lat="43.61031" lon="4.06745">
    <ele>-0.8</ele>
    <name><![CDATA[]]></name>
    <type><![CDATA[Point de départ]]></type>
  </wpt>
  <wpt lat="43.61042" lon="4.06791">
    <ele>1.46</ele>
    <name><![CDATA[]]></name>
    <desc><![CDATA[<p><br /><h3>Nom: Segment: 1</h3><br />Heure de départ: 14:00 22 nov. 2021<br/>Heure d'arrivée: 15:54 22 nov. 2021<br/>Distance: 7,4km (01:53)<br/>Temps déplacement: 01:43<br/>Vitesse moyenne: 3,93 km/h<br/>Vitesse moyenne mouv.: 4,31 km/h<br/>Vitesse Max.: 6,21 km/h<br/>Altitude minimale: -11 m<br/>Altitude maximale: 1 m<br/>Vitesse de montée: 137 m/h<br/>Vitesse de descente: 178,4 m/h<br/>Gain d'altitude: 48 m<br/>Perte d'altitude: 47 m<br/>Temps de montée: 00:21<br/>Temps de descente: 00:16<br/></p>]]></desc>
    <type><![CDATA[Point d'arrivée]]></type>
  </wpt>
  <trk>
    <name><![CDATA[2021-11-22 14:00:54]]></name>
    <desc><![CDATA[<p>Heure de départ: 14:00 22 nov. 2021<br/>Heure d'arrivée: 15:54 22 nov. 2021<br/>Distance: 7,4 km (01:53)<br/>Temps déplacement: 01:43<br/>Vitesse moyenne: 3,93 km/h<br/>Vitesse moyenne mouv.: 4,31 km/h<br/>Vitesse Max.: 6,21 km/h<br/>Altitude minimale: -11 m<br/>Altitude maximale: 1 m<br/>Vitesse de montée: 137 m/h<br/>Vitesse de descente: 178,4 m/h<br/>Gain d'altitude: 48 m<br/>Perte d'altitude: 47 m<br/>Temps de montée: 00:21<br/>Temps de descente: 00:16<br/></p><hr align="center" width="480" style="height: 2px; width: 517px"/>]]></desc>
    <trkseg>
      <trkpt lat="43.61031" lon="4.06745">
        <ele>-0.8</ele>
        <time>2021-11-22T13:00:54.000Z</time>
      </trkpt>
      <trkpt lat="43.6102" lon="4.06724">
        <ele>-1.14</ele>
        <time>2021-11-22T13:01:25.000Z</time>
      </trkpt>
      <trkpt lat="43.61013" lon="4.067">
        <ele>0.11</ele>
        <time>2021-11-22T13:01:41.000Z</time>
      </trkpt>
      <trkpt lat="43.61007" lon="4.06676">
        <ele>-1.17</ele>
        <time>2021-11-22T13:01:56.000Z</time>
      </trkpt>
      <trkpt lat="43.60998" lon="4.06654">
        <ele>1.04</ele>
        <time>2021-11-22T13:02:11.000Z</time>
      </trkpt>
      <trkpt lat="43.60991" lon="4.0663">
        <ele>0.43</ele>
        <time>2021-11-22T13:02:25.000Z</time>
      </trkpt>
      <trkpt lat="43.60979" lon="4.06611">
        <ele>1.46</ele>
        <time>2021-11-22T13:02:41.000Z</time>
      </trkpt>
      <trkpt lat="43.60962" lon="4.066">
        <ele>0.68</ele>
        <time>2021-11-22T13:02:56.000Z</time>
      </trkpt>
      <trkpt lat="43.60944" lon="4.06599">
        <ele>0.78</ele>
        <time>2021-11-22T13:03:12.000Z</time>
      </trkpt>
      <trkpt lat="43.60926" lon="4.06609">
        <ele>1.59</ele>
        <time>2021-11-22T13:03:27.000Z</time>
      </trkpt>
      <trkpt lat="43.60909" lon="4.06621">
        <ele>1.67</ele>
        <time>2021-11-22T13:03:42.000Z</time>
      </trkpt>
      <trkpt lat="43.60892" lon="4.06632">
        <ele>2.42</ele>
        <time>2021-11-22T13:03:57.000Z</time>
      </trkpt>
      <trkpt lat="43.60879" lon="4.0665">
        <ele>2.5</ele>
        <time>2021-11-22T13:04:12.000Z</time>
      </trkpt>
      <trkpt lat="43.60882" lon="4.06676">
        <ele>1.82</ele>
        <time>2021-11-22T13:04:29.000Z</time>
      </trkpt>
      <trkpt lat="43.60891" lon="4.06698">
        <ele>2.52</ele>
        <time>2021-11-22T13:04:44.000Z</time>
      </trkpt>
      <trkpt lat="43.60901" lon="4.06721">
        <ele>1.73</ele>
        <time>2021-11-22T13:04:59.000Z</time>
      </trkpt>
      <trkpt lat="43.60908" lon="4.06745">
        <ele>2.32</ele>
        <time>2021-11-22T13:05:14.000Z</time>
      </trkpt>
      <trkpt lat="43.60894" lon="4.06762">
        <ele>0.67</ele>
        <time>2021-11-22T13:05:44.000Z</time>
      </trkpt>
      <trkpt lat="43.60878" lon="4.06774">
        <ele>1.42</ele>
        <time>2021-11-22T13:06:00.000Z</time>
      </trkpt>
      <trkpt lat="43.60862" lon="4.06786">
        <ele>1.46</ele>
        <time>2021-11-22T13:06:15.000Z</time>
      </trkpt>
      <trkpt lat="43.60846" lon="4.06798">
        <ele>0.06</ele>
        <time>2021-11-22T13:06:29.000Z</time>
      </trkpt>
      <trkpt lat="43.60831" lon="4.06812">
        <ele>-4.17</ele>
        <time>2021-11-22T13:06:46.000Z</time>
      </trkpt>
      <trkpt lat="43.60814" lon="4.06822">
        <ele>-1.92</ele>
        <time>2021-11-22T13:07:01.000Z</time>
      </trkpt>
      <trkpt lat="43.60798" lon="4.06835">
        <ele>-1.33</ele>
        <time>2021-11-22T13:07:17.000Z</time>
      </trkpt>
      <trkpt lat="43.60781" lon="4.06848">
        <ele>-3.36</ele>
        <time>2021-11-22T13:07:33.000Z</time>
      </trkpt>
      <trkpt lat="43.60765" lon="4.06861">
        <ele>-3.9</ele>
        <time>2021-11-22T13:07:53.000Z</time>
      </trkpt>
      <trkpt lat="43.60749" lon="4.06872">
        <ele>-2.31</ele>
        <time>2021-11-22T13:08:10.000Z</time>
      </trkpt>
      <trkpt lat="43.60732" lon="4.06884">
        <ele>-3.64</ele>
        <time>2021-11-22T13:08:28.000Z</time>
      </trkpt>
      <trkpt lat="43.60715" lon="4.06895">
        <ele>-2.55</ele>
        <time>2021-11-22T13:08:45.000Z</time>
      </trkpt>
      <trkpt lat="43.60698" lon="4.06906">
        <ele>-0.25</ele>
        <time>2021-11-22T13:09:02.000Z</time>
      </trkpt>
      <trkpt lat="43.60682" lon="4.06919">
        <ele>-1.06</ele>
        <time>2021-11-22T13:09:19.000Z</time>
      </trkpt>
      <trkpt lat="43.60665" lon="4.06931">
        <ele>-1.1</ele>
        <time>2021-11-22T13:09:35.000Z</time>
      </trkpt>
      <trkpt lat="43.60649" lon="4.06944">
        <ele>-3.65</ele>
        <time>2021-11-22T13:09:53.000Z</time>
      </trkpt>
      <trkpt lat="43.60632" lon="4.06956">
        <ele>-4.33</ele>
        <time>2021-11-22T13:10:10.000Z</time>
      </trkpt>
      <trkpt lat="43.60615" lon="4.06967">
        <ele>-2.88</ele>
        <time>2021-11-22T13:10:27.000Z</time>
      </trkpt>
      <trkpt lat="43.60599" lon="4.06979">
        <ele>-2.54</ele>
        <time>2021-11-22T13:10:44.000Z</time>
      </trkpt>
      <trkpt lat="43.60583" lon="4.06993">
        <ele>-2.67</ele>
        <time>2021-11-22T13:11:02.000Z</time>
      </trkpt>
      <trkpt lat="43.60568" lon="4.07007">
        <ele>0.27</ele>
        <time>2021-11-22T13:11:27.000Z</time>
      </trkpt>
      <trkpt lat="43.6055" lon="4.07018">
        <ele>-2.91</ele>
        <time>2021-11-22T13:11:45.000Z</time>
      </trkpt>
      <trkpt lat="43.60534" lon="4.0703">
        <ele>-3.11</ele>
        <time>2021-11-22T13:12:02.000Z</time>
      </trkpt>
      <trkpt lat="43.60518" lon="4.07041">
        <ele>-1.12</ele>
        <time>2021-11-22T13:12:20.000Z</time>
      </trkpt>
      <trkpt lat="43.60502" lon="4.07054">
        <ele>-1.42</ele>
        <time>2021-11-22T13:12:39.000Z</time>
      </trkpt>
      <trkpt lat="43.60486" lon="4.07066">
        <ele>-1.91</ele>
        <time>2021-11-22T13:12:58.000Z</time>
      </trkpt>
      <trkpt lat="43.60469" lon="4.07076">
        <ele>-1.5</ele>
        <time>2021-11-22T13:13:17.000Z</time>
      </trkpt>
      <trkpt lat="43.60452" lon="4.0709">
        <ele>0.64</ele>
        <time>2021-11-22T13:13:33.000Z</time>
      </trkpt>
      <trkpt lat="43.60436" lon="4.07101">
        <ele>-0.76</ele>
        <time>2021-11-22T13:13:50.000Z</time>
      </trkpt>
      <trkpt lat="43.6042" lon="4.07113">
        <ele>-3.69</ele>
        <time>2021-11-22T13:14:06.000Z</time>
      </trkpt>
      <trkpt lat="43.60403" lon="4.07125">
        <ele>-6.1</ele>
        <time>2021-11-22T13:14:24.000Z</time>
      </trkpt>
      <trkpt lat="43.60387" lon="4.07137">
        <ele>-5.65</ele>
        <time>2021-11-22T13:14:43.000Z</time>
      </trkpt>
      <trkpt lat="43.60371" lon="4.07151">
        <ele>-2.09</ele>
        <time>2021-11-22T13:15:01.000Z</time>
      </trkpt>
      <trkpt lat="43.60355" lon="4.07163">
        <ele>-2.92</ele>
        <time>2021-11-22T13:15:19.000Z</time>
      </trkpt>
      <trkpt lat="43.60337" lon="4.07174">
        <ele>-4.03</ele>
        <time>2021-11-22T13:15:34.000Z</time>
      </trkpt>
      <trkpt lat="43.6032" lon="4.07187">
        <ele>-7.25</ele>
        <time>2021-11-22T13:15:51.000Z</time>
      </trkpt>
      <trkpt lat="43.60303" lon="4.0719">
        <ele>0.83</ele>
        <time>2021-11-22T13:16:28.000Z</time>
      </trkpt>
      <trkpt lat="43.60302" lon="4.07165">
        <ele>2.01</ele>
        <time>2021-11-22T13:16:46.000Z</time>
      </trkpt>
      <trkpt lat="43.60301" lon="4.07139">
        <ele>0.62</ele>
        <time>2021-11-22T13:17:04.000Z</time>
      </trkpt>
      <trkpt lat="43.603" lon="4.07114">
        <ele>-0.74</ele>
        <time>2021-11-22T13:17:23.000Z</time>
      </trkpt>
      <trkpt lat="43.603" lon="4.07089">
        <ele>-0.46</ele>
        <time>2021-11-22T13:17:41.000Z</time>
      </trkpt>
      <trkpt lat="43.603" lon="4.07063">
        <ele>-0.7</ele>
        <time>2021-11-22T13:17:59.000Z</time>
      </trkpt>
      <trkpt lat="43.60299" lon="4.07037">
        <ele>-1.76</ele>
        <time>2021-11-22T13:18:17.000Z</time>
      </trkpt>
      <trkpt lat="43.60298" lon="4.07011">
        <ele>-0.23</ele>
        <time>2021-11-22T13:18:32.000Z</time>
      </trkpt>
      <trkpt lat="43.60294" lon="4.06987">
        <ele>-1.48</ele>
        <time>2021-11-22T13:18:49.000Z</time>
      </trkpt>
      <trkpt lat="43.60288" lon="4.06963">
        <ele>0.22</ele>
        <time>2021-11-22T13:19:06.000Z</time>
      </trkpt>
      <trkpt lat="43.60282" lon="4.06938">
        <ele>-0.37</ele>
        <time>2021-11-22T13:19:25.000Z</time>
      </trkpt>
      <trkpt lat="43.60277" lon="4.06913">
        <ele>-0.89</ele>
        <time>2021-11-22T13:19:42.000Z</time>
      </trkpt>
      <trkpt lat="43.6027" lon="4.0689">
        <ele>-1.49</ele>
        <time>2021-11-22T13:19:59.000Z</time>
      </trkpt>
      <trkpt lat="43.60264" lon="4.06865">
        <ele>-2.6</ele>
        <time>2021-11-22T13:20:17.000Z</time>
      </trkpt>
      <trkpt lat="43.60258" lon="4.06841">
        <ele>-2.32</ele>
        <time>2021-11-22T13:20:34.000Z</time>
      </trkpt>
      <trkpt lat="43.60252" lon="4.06816">
        <ele>-2</ele>
        <time>2021-11-22T13:20:50.000Z</time>
      </trkpt>
      <trkpt lat="43.60248" lon="4.06792">
        <ele>-2.57</ele>
        <time>2021-11-22T13:21:08.000Z</time>
      </trkpt>
      <trkpt lat="43.60242" lon="4.06767">
        <ele>-2.01</ele>
        <time>2021-11-22T13:21:26.000Z</time>
      </trkpt>
      <trkpt lat="43.60237" lon="4.06743">
        <ele>-1.72</ele>
        <time>2021-11-22T13:21:43.000Z</time>
      </trkpt>
      <trkpt lat="43.60231" lon="4.06718">
        <ele>-1.33</ele>
        <time>2021-11-22T13:22:00.000Z</time>
      </trkpt>
      <trkpt lat="43.60225" lon="4.06694">
        <ele>-2.52</ele>
        <time>2021-11-22T13:22:17.000Z</time>
      </trkpt>
      <trkpt lat="43.6022" lon="4.06669">
        <ele>-2.15</ele>
        <time>2021-11-22T13:22:32.000Z</time>
      </trkpt>
      <trkpt lat="43.60213" lon="4.06645">
        <ele>-0.88</ele>
        <time>2021-11-22T13:22:47.000Z</time>
      </trkpt>
      <trkpt lat="43.60207" lon="4.06621">
        <ele>-2.26</ele>
        <time>2021-11-22T13:23:04.000Z</time>
      </trkpt>
      <trkpt lat="43.60201" lon="4.06597">
        <ele>-2.61</ele>
        <time>2021-11-22T13:23:21.000Z</time>
      </trkpt>
      <trkpt lat="43.60196" lon="4.06573">
        <ele>-1.56</ele>
        <time>2021-11-22T13:23:37.000Z</time>
      </trkpt>
      <trkpt lat="43.60191" lon="4.06549">
        <ele>-0.56</ele>
        <time>2021-11-22T13:24:25.000Z</time>
      </trkpt>
      <trkpt lat="43.60185" lon="4.06525">
        <ele>-1.4</ele>
        <time>2021-11-22T13:24:43.000Z</time>
      </trkpt>
      <trkpt lat="43.60179" lon="4.06501">
        <ele>-2.18</ele>
        <time>2021-11-22T13:25:11.000Z</time>
      </trkpt>
      <trkpt lat="43.60173" lon="4.06476">
        <ele>-2.25</ele>
        <time>2021-11-22T13:25:28.000Z</time>
      </trkpt>
      <trkpt lat="43.60166" lon="4.06453">
        <ele>-3.53</ele>
        <time>2021-11-22T13:25:46.000Z</time>
      </trkpt>
      <trkpt lat="43.60161" lon="4.06428">
        <ele>-5.23</ele>
        <time>2021-11-22T13:26:03.000Z</time>
      </trkpt>
      <trkpt lat="43.60154" lon="4.06404">
        <ele>-3.89</ele>
        <time>2021-11-22T13:26:20.000Z</time>
      </trkpt>
      <trkpt lat="43.6015" lon="4.0638">
        <ele>-3.12</ele>
        <time>2021-11-22T13:26:36.000Z</time>
      </trkpt>
      <trkpt lat="43.60143" lon="4.06355">
        <ele>-3.65</ele>
        <time>2021-11-22T13:26:54.000Z</time>
      </trkpt>
      <trkpt lat="43.60138" lon="4.0633">
        <ele>-3.65</ele>
        <time>2021-11-22T13:27:11.000Z</time>
      </trkpt>
      <trkpt lat="43.60131" lon="4.06306">
        <ele>-3.45</ele>
        <time>2021-11-22T13:27:28.000Z</time>
      </trkpt>
      <trkpt lat="43.60126" lon="4.06281">
        <ele>-2.3</ele>
        <time>2021-11-22T13:27:49.000Z</time>
      </trkpt>
      <trkpt lat="43.60119" lon="4.06258">
        <ele>-3.29</ele>
        <time>2021-11-22T13:28:06.000Z</time>
      </trkpt>
      <trkpt lat="43.6011" lon="4.06235">
        <ele>-2.82</ele>
        <time>2021-11-22T13:28:23.000Z</time>
      </trkpt>
      <trkpt lat="43.60101" lon="4.06213">
        <ele>-2.01</ele>
        <time>2021-11-22T13:28:40.000Z</time>
      </trkpt>
      <trkpt lat="43.60091" lon="4.06191">
        <ele>-2.31</ele>
        <time>2021-11-22T13:28:58.000Z</time>
      </trkpt>
      <trkpt lat="43.60083" lon="4.06169">
        <ele>-1.76</ele>
        <time>2021-11-22T13:29:15.000Z</time>
      </trkpt>
      <trkpt lat="43.60076" lon="4.06146">
        <ele>-1.2</ele>
        <time>2021-11-22T13:29:32.000Z</time>
      </trkpt>
      <trkpt lat="43.60066" lon="4.06124">
        <ele>-2.47</ele>
        <time>2021-11-22T13:29:51.000Z</time>
      </trkpt>
      <trkpt lat="43.60055" lon="4.06103">
        <ele>-3.16</ele>
        <time>2021-11-22T13:30:08.000Z</time>
      </trkpt>
      <trkpt lat="43.60046" lon="4.0608">
        <ele>-2.64</ele>
        <time>2021-11-22T13:30:25.000Z</time>
      </trkpt>
      <trkpt lat="43.60037" lon="4.06058">
        <ele>-3.79</ele>
        <time>2021-11-22T13:30:42.000Z</time>
      </trkpt>
      <trkpt lat="43.60029" lon="4.06035">
        <ele>-2.95</ele>
        <time>2021-11-22T13:30:58.000Z</time>
      </trkpt>
      <trkpt lat="43.60022" lon="4.06011">
        <ele>-3.76</ele>
        <time>2021-11-22T13:31:16.000Z</time>
      </trkpt>
      <trkpt lat="43.60013" lon="4.05988">
        <ele>-3.21</ele>
        <time>2021-11-22T13:31:33.000Z</time>
      </trkpt>
      <trkpt lat="43.59998" lon="4.05975">
        <ele>-2.08</ele>
        <time>2021-11-22T13:31:55.000Z</time>
      </trkpt>
      <trkpt lat="43.59995" lon="4.0595">
        <ele>-1.2</ele>
        <time>2021-11-22T13:33:27.000Z</time>
      </trkpt>
      <trkpt lat="43.59983" lon="4.0593">
        <ele>-1.16</ele>
        <time>2021-11-22T13:33:42.000Z</time>
      </trkpt>
      <trkpt lat="43.59972" lon="4.05911">
        <ele>-1.58</ele>
        <time>2021-11-22T13:33:58.000Z</time>
      </trkpt>
      <trkpt lat="43.5996" lon="4.05891">
        <ele>-3.75</ele>
        <time>2021-11-22T13:34:20.000Z</time>
      </trkpt>
      <trkpt lat="43.59948" lon="4.05871">
        <ele>-2.45</ele>
        <time>2021-11-22T13:34:38.000Z</time>
      </trkpt>
      <trkpt lat="43.5993" lon="4.05867">
        <ele>-0.11</ele>
        <time>2021-11-22T13:34:59.000Z</time>
      </trkpt>
      <trkpt lat="43.59915" lon="4.05882">
        <ele>-1.98</ele>
        <time>2021-11-22T13:35:18.000Z</time>
      </trkpt>
      <trkpt lat="43.599" lon="4.05896">
        <ele>-2.99</ele>
        <time>2021-11-22T13:35:40.000Z</time>
      </trkpt>
      <trkpt lat="43.59884" lon="4.05908">
        <ele>-2.78</ele>
        <time>2021-11-22T13:36:40.000Z</time>
      </trkpt>
      <trkpt lat="43.59895" lon="4.05888">
        <ele>-3.37</ele>
        <time>2021-11-22T13:38:33.000Z</time>
      </trkpt>
      <trkpt lat="43.59911" lon="4.05874">
        <ele>-1.84</ele>
        <time>2021-11-22T13:38:49.000Z</time>
      </trkpt>
      <trkpt lat="43.59925" lon="4.05858">
        <ele>-0.17</ele>
        <time>2021-11-22T13:39:05.000Z</time>
      </trkpt>
      <trkpt lat="43.5994" lon="4.05843">
        <ele>-2.32</ele>
        <time>2021-11-22T13:39:22.000Z</time>
      </trkpt>
      <trkpt lat="43.59956" lon="4.05829">
        <ele>-2.33</ele>
        <time>2021-11-22T13:39:38.000Z</time>
      </trkpt>
      <trkpt lat="43.59971" lon="4.05813">
        <ele>-1.83</ele>
        <time>2021-11-22T13:39:57.000Z</time>
      </trkpt>
      <trkpt lat="43.59986" lon="4.05797">
        <ele>-1.46</ele>
        <time>2021-11-22T13:40:14.000Z</time>
      </trkpt>
      <trkpt lat="43.6" lon="4.05782">
        <ele>-1.96</ele>
        <time>2021-11-22T13:40:31.000Z</time>
      </trkpt>
      <trkpt lat="43.60015" lon="4.05765">
        <ele>-3.92</ele>
        <time>2021-11-22T13:40:49.000Z</time>
      </trkpt>
      <trkpt lat="43.60029" lon="4.0575">
        <ele>-2.52</ele>
        <time>2021-11-22T13:41:05.000Z</time>
      </trkpt>
      <trkpt lat="43.60044" lon="4.05735">
        <ele>-2.06</ele>
        <time>2021-11-22T13:41:21.000Z</time>
      </trkpt>
      <trkpt lat="43.60059" lon="4.05721">
        <ele>-3.26</ele>
        <time>2021-11-22T13:41:41.000Z</time>
      </trkpt>
      <trkpt lat="43.60073" lon="4.05705">
        <ele>-2.56</ele>
        <time>2021-11-22T13:41:58.000Z</time>
      </trkpt>
      <trkpt lat="43.60088" lon="4.05689">
        <ele>-3.68</ele>
        <time>2021-11-22T13:42:16.000Z</time>
      </trkpt>
      <trkpt lat="43.60104" lon="4.05675">
        <ele>-5.08</ele>
        <time>2021-11-22T13:42:33.000Z</time>
      </trkpt>
      <trkpt lat="43.60119" lon="4.05658">
        <ele>-4.91</ele>
        <time>2021-11-22T13:42:49.000Z</time>
      </trkpt>
      <trkpt lat="43.60131" lon="4.05639">
        <ele>-7.29</ele>
        <time>2021-11-22T13:43:07.000Z</time>
      </trkpt>
      <trkpt lat="43.60145" lon="4.05622">
        <ele>-10.55</ele>
        <time>2021-11-22T13:43:24.000Z</time>
      </trkpt>
      <trkpt lat="43.6016" lon="4.05605">
        <ele>-10.75</ele>
        <time>2021-11-22T13:43:41.000Z</time>
      </trkpt>
      <trkpt lat="43.60175" lon="4.0559">
        <ele>-10.08</ele>
        <time>2021-11-22T13:43:57.000Z</time>
      </trkpt>
      <trkpt lat="43.60189" lon="4.05575">
        <ele>-10.95</ele>
        <time>2021-11-22T13:44:13.000Z</time>
      </trkpt>
      <trkpt lat="43.60204" lon="4.05559">
        <ele>-10.88</ele>
        <time>2021-11-22T13:44:28.000Z</time>
      </trkpt>
      <trkpt lat="43.60219" lon="4.05544">
        <ele>-10.78</ele>
        <time>2021-11-22T13:44:42.000Z</time>
      </trkpt>
      <trkpt lat="43.60234" lon="4.0553">
        <ele>-10.06</ele>
        <time>2021-11-22T13:44:57.000Z</time>
      </trkpt>
      <trkpt lat="43.60249" lon="4.05515">
        <ele>-8.88</ele>
        <time>2021-11-22T13:45:12.000Z</time>
      </trkpt>
      <trkpt lat="43.60265" lon="4.055">
        <ele>-7.71</ele>
        <time>2021-11-22T13:45:26.000Z</time>
      </trkpt>
      <trkpt lat="43.60281" lon="4.05486">
        <ele>-4.71</ele>
        <time>2021-11-22T13:45:38.000Z</time>
      </trkpt>
      <trkpt lat="43.60295" lon="4.05471">
        <ele>-6.28</ele>
        <time>2021-11-22T13:45:54.000Z</time>
      </trkpt>
      <trkpt lat="43.6031" lon="4.05455">
        <ele>-7.55</ele>
        <time>2021-11-22T13:46:09.000Z</time>
      </trkpt>
      <trkpt lat="43.60324" lon="4.05438">
        <ele>-8.65</ele>
        <time>2021-11-22T13:46:24.000Z</time>
      </trkpt>
      <trkpt lat="43.60339" lon="4.05424">
        <ele>-8.59</ele>
        <time>2021-11-22T13:46:39.000Z</time>
      </trkpt>
      <trkpt lat="43.60354" lon="4.05408">
        <ele>-7.84</ele>
        <time>2021-11-22T13:46:55.000Z</time>
      </trkpt>
      <trkpt lat="43.60368" lon="4.05392">
        <ele>-7.61</ele>
        <time>2021-11-22T13:47:10.000Z</time>
      </trkpt>
      <trkpt lat="43.60382" lon="4.05376">
        <ele>-8.3</ele>
        <time>2021-11-22T13:47:26.000Z</time>
      </trkpt>
      <trkpt lat="43.60397" lon="4.0536">
        <ele>-8.33</ele>
        <time>2021-11-22T13:47:42.000Z</time>
      </trkpt>
      <trkpt lat="43.60413" lon="4.05346">
        <ele>-7.55</ele>
        <time>2021-11-22T13:47:57.000Z</time>
      </trkpt>
      <trkpt lat="43.60429" lon="4.05332">
        <ele>-7.21</ele>
        <time>2021-11-22T13:48:12.000Z</time>
      </trkpt>
      <trkpt lat="43.60444" lon="4.05317">
        <ele>-7.16</ele>
        <time>2021-11-22T13:48:27.000Z</time>
      </trkpt>
      <trkpt lat="43.60458" lon="4.05301">
        <ele>-7.2</ele>
        <time>2021-11-22T13:48:42.000Z</time>
      </trkpt>
      <trkpt lat="43.60473" lon="4.05285">
        <ele>-6.94</ele>
        <time>2021-11-22T13:48:57.000Z</time>
      </trkpt>
      <trkpt lat="43.60488" lon="4.05268">
        <ele>-3.11</ele>
        <time>2021-11-22T13:49:16.000Z</time>
      </trkpt>
      <trkpt lat="43.60505" lon="4.05256">
        <ele>-2.95</ele>
        <time>2021-11-22T13:49:48.000Z</time>
      </trkpt>
      <trkpt lat="43.60519" lon="4.0524">
        <ele>-2.24</ele>
        <time>2021-11-22T13:50:03.000Z</time>
      </trkpt>
      <trkpt lat="43.60534" lon="4.05226">
        <ele>-3.69</ele>
        <time>2021-11-22T13:50:18.000Z</time>
      </trkpt>
      <trkpt lat="43.6055" lon="4.05211">
        <ele>-4.62</ele>
        <time>2021-11-22T13:50:33.000Z</time>
      </trkpt>
      <trkpt lat="43.60566" lon="4.05198">
        <ele>-3.65</ele>
        <time>2021-11-22T13:50:48.000Z</time>
      </trkpt>
      <trkpt lat="43.60581" lon="4.05182">
        <ele>-3.6</ele>
        <time>2021-11-22T13:51:04.000Z</time>
      </trkpt>
      <trkpt lat="43.60596" lon="4.05167">
        <ele>-3.45</ele>
        <time>2021-11-22T13:51:19.000Z</time>
      </trkpt>
      <trkpt lat="43.6061" lon="4.05151">
        <ele>-1.35</ele>
        <time>2021-11-22T13:51:37.000Z</time>
      </trkpt>
      <trkpt lat="43.60624" lon="4.05135">
        <ele>1.26</ele>
        <time>2021-11-22T13:52:17.000Z</time>
      </trkpt>
      <trkpt lat="43.6064" lon="4.05119">
        <ele>1.91</ele>
        <time>2021-11-22T13:52:34.000Z</time>
      </trkpt>
      <trkpt lat="43.60654" lon="4.05102">
        <ele>-1.05</ele>
        <time>2021-11-22T13:52:52.000Z</time>
      </trkpt>
      <trkpt lat="43.60667" lon="4.05085">
        <ele>-5.18</ele>
        <time>2021-11-22T13:53:09.000Z</time>
      </trkpt>
      <trkpt lat="43.60682" lon="4.05071">
        <ele>-7.12</ele>
        <time>2021-11-22T13:53:25.000Z</time>
      </trkpt>
      <trkpt lat="43.60696" lon="4.05055">
        <ele>-5.97</ele>
        <time>2021-11-22T13:53:41.000Z</time>
      </trkpt>
      <trkpt lat="43.60712" lon="4.05039">
        <ele>-5.05</ele>
        <time>2021-11-22T13:53:56.000Z</time>
      </trkpt>
      <trkpt lat="43.60726" lon="4.05023">
        <ele>-8.48</ele>
        <time>2021-11-22T13:54:13.000Z</time>
      </trkpt>
      <trkpt lat="43.60739" lon="4.05006">
        <ele>-7.43</ele>
        <time>2021-11-22T13:54:30.000Z</time>
      </trkpt>
      <trkpt lat="43.60754" lon="4.04991">
        <ele>-6.69</ele>
        <time>2021-11-22T13:54:47.000Z</time>
      </trkpt>
      <trkpt lat="43.60768" lon="4.04975">
        <ele>-7.95</ele>
        <time>2021-11-22T13:55:03.000Z</time>
      </trkpt>
      <trkpt lat="43.60787" lon="4.04977">
        <ele>-3.53</ele>
        <time>2021-11-22T13:55:48.000Z</time>
      </trkpt>
      <trkpt lat="43.60805" lon="4.04975">
        <ele>-2.39</ele>
        <time>2021-11-22T13:56:12.000Z</time>
      </trkpt>
      <trkpt lat="43.60822" lon="4.04969">
        <ele>-1.14</ele>
        <time>2021-11-22T13:56:30.000Z</time>
      </trkpt>
      <trkpt lat="43.60838" lon="4.04955">
        <ele>2.38</ele>
        <time>2021-11-22T13:56:46.000Z</time>
      </trkpt>
      <trkpt lat="43.60854" lon="4.04941">
        <ele>0.78</ele>
        <time>2021-11-22T13:57:02.000Z</time>
      </trkpt>
      <trkpt lat="43.60837" lon="4.0495">
        <ele>-0.04</ele>
        <time>2021-11-22T13:57:34.000Z</time>
      </trkpt>
      <trkpt lat="43.6082" lon="4.04962">
        <ele>-1.71</ele>
        <time>2021-11-22T13:57:50.000Z</time>
      </trkpt>
      <trkpt lat="43.60803" lon="4.04972">
        <ele>1.23</ele>
        <time>2021-11-22T13:58:04.000Z</time>
      </trkpt>
      <trkpt lat="43.60785" lon="4.04976">
        <ele>1.09</ele>
        <time>2021-11-22T13:58:30.000Z</time>
      </trkpt>
      <trkpt lat="43.60793" lon="4.04952">
        <ele>-8.95</ele>
        <time>2021-11-22T13:59:23.000Z</time>
      </trkpt>
      <trkpt lat="43.60807" lon="4.04934">
        <ele>-6.37</ele>
        <time>2021-11-22T13:59:39.000Z</time>
      </trkpt>
      <trkpt lat="43.6082" lon="4.04916">
        <ele>-9.6</ele>
        <time>2021-11-22T13:59:57.000Z</time>
      </trkpt>
      <trkpt lat="43.60836" lon="4.04903">
        <ele>-9.39</ele>
        <time>2021-11-22T14:00:55.000Z</time>
      </trkpt>
      <trkpt lat="43.60823" lon="4.04921">
        <ele>-11.32</ele>
        <time>2021-11-22T14:01:54.000Z</time>
      </trkpt>
      <trkpt lat="43.60809" lon="4.04939">
        <ele>-9.74</ele>
        <time>2021-11-22T14:02:14.000Z</time>
      </trkpt>
      <trkpt lat="43.60794" lon="4.04955">
        <ele>-11.95</ele>
        <time>2021-11-22T14:02:30.000Z</time>
      </trkpt>
      <trkpt lat="43.60779" lon="4.0497">
        <ele>-13.75</ele>
        <time>2021-11-22T14:02:45.000Z</time>
      </trkpt>
      <trkpt lat="43.60763" lon="4.04986">
        <ele>-11.83</ele>
        <time>2021-11-22T14:03:02.000Z</time>
      </trkpt>
      <trkpt lat="43.60747" lon="4.05">
        <ele>-12.22</ele>
        <time>2021-11-22T14:03:16.000Z</time>
      </trkpt>
      <trkpt lat="43.60733" lon="4.05016">
        <ele>-11.36</ele>
        <time>2021-11-22T14:03:30.000Z</time>
      </trkpt>
      <trkpt lat="43.6072" lon="4.05034">
        <ele>-10.91</ele>
        <time>2021-11-22T14:03:47.000Z</time>
      </trkpt>
      <trkpt lat="43.60705" lon="4.05047">
        <ele>-11.66</ele>
        <time>2021-11-22T14:04:02.000Z</time>
      </trkpt>
      <trkpt lat="43.6069" lon="4.05063">
        <ele>-10.3</ele>
        <time>2021-11-22T14:04:17.000Z</time>
      </trkpt>
      <trkpt lat="43.60675" lon="4.05077">
        <ele>-7.45</ele>
        <time>2021-11-22T14:04:31.000Z</time>
      </trkpt>
      <trkpt lat="43.6066" lon="4.05092">
        <ele>-8.19</ele>
        <time>2021-11-22T14:04:46.000Z</time>
      </trkpt>
      <trkpt lat="43.60645" lon="4.05107">
        <ele>-7.94</ele>
        <time>2021-11-22T14:05:01.000Z</time>
      </trkpt>
      <trkpt lat="43.60631" lon="4.05123">
        <ele>-6.53</ele>
        <time>2021-11-22T14:06:03.000Z</time>
      </trkpt>
      <trkpt lat="43.60616" lon="4.05138">
        <ele>-7.08</ele>
        <time>2021-11-22T14:06:21.000Z</time>
      </trkpt>
      <trkpt lat="43.60602" lon="4.05155">
        <ele>-7.6</ele>
        <time>2021-11-22T14:06:37.000Z</time>
      </trkpt>
      <trkpt lat="43.60586" lon="4.05169">
        <ele>-6.52</ele>
        <time>2021-11-22T14:06:51.000Z</time>
      </trkpt>
      <trkpt lat="43.60572" lon="4.05186">
        <ele>-6.08</ele>
        <time>2021-11-22T14:07:06.000Z</time>
      </trkpt>
      <trkpt lat="43.60556" lon="4.05201">
        <ele>-7.15</ele>
        <time>2021-11-22T14:07:21.000Z</time>
      </trkpt>
      <trkpt lat="43.60541" lon="4.05215">
        <ele>-5.47</ele>
        <time>2021-11-22T14:07:35.000Z</time>
      </trkpt>
      <trkpt lat="43.60525" lon="4.05231">
        <ele>-4.08</ele>
        <time>2021-11-22T14:07:50.000Z</time>
      </trkpt>
      <trkpt lat="43.60509" lon="4.05244">
        <ele>-4.64</ele>
        <time>2021-11-22T14:08:06.000Z</time>
      </trkpt>
      <trkpt lat="43.60495" lon="4.05261">
        <ele>-2.67</ele>
        <time>2021-11-22T14:08:22.000Z</time>
      </trkpt>
      <trkpt lat="43.60479" lon="4.05274">
        <ele>-3.38</ele>
        <time>2021-11-22T14:08:42.000Z</time>
      </trkpt>
      <trkpt lat="43.60466" lon="4.05292">
        <ele>-1.48</ele>
        <time>2021-11-22T14:08:58.000Z</time>
      </trkpt>
      <trkpt lat="43.60452" lon="4.05308">
        <ele>-2.74</ele>
        <time>2021-11-22T14:09:14.000Z</time>
      </trkpt>
      <trkpt lat="43.60438" lon="4.05325">
        <ele>-2.48</ele>
        <time>2021-11-22T14:09:30.000Z</time>
      </trkpt>
      <trkpt lat="43.60422" lon="4.05337">
        <ele>-2.59</ele>
        <time>2021-11-22T14:09:46.000Z</time>
      </trkpt>
      <trkpt lat="43.60408" lon="4.05353">
        <ele>-4.33</ele>
        <time>2021-11-22T14:10:02.000Z</time>
      </trkpt>
      <trkpt lat="43.60392" lon="4.05368">
        <ele>-3.69</ele>
        <time>2021-11-22T14:10:18.000Z</time>
      </trkpt>
      <trkpt lat="43.60378" lon="4.05386">
        <ele>-3.03</ele>
        <time>2021-11-22T14:10:33.000Z</time>
      </trkpt>
      <trkpt lat="43.60363" lon="4.05401">
        <ele>-2.73</ele>
        <time>2021-11-22T14:10:48.000Z</time>
      </trkpt>
      <trkpt lat="43.60348" lon="4.05415">
        <ele>-1.6</ele>
        <time>2021-11-22T14:11:02.000Z</time>
      </trkpt>
      <trkpt lat="43.60333" lon="4.0543">
        <ele>-2.5</ele>
        <time>2021-11-22T14:11:17.000Z</time>
      </trkpt>
      <trkpt lat="43.60318" lon="4.05445">
        <ele>-1.07</ele>
        <time>2021-11-22T14:11:31.000Z</time>
      </trkpt>
      <trkpt lat="43.60304" lon="4.05461">
        <ele>-0.47</ele>
        <time>2021-11-22T14:11:46.000Z</time>
      </trkpt>
      <trkpt lat="43.60289" lon="4.05475">
        <ele>-1.14</ele>
        <time>2021-11-22T14:12:01.000Z</time>
      </trkpt>
      <trkpt lat="43.60274" lon="4.05491">
        <ele>-0.32</ele>
        <time>2021-11-22T14:12:17.000Z</time>
      </trkpt>
      <trkpt lat="43.60259" lon="4.05507">
        <ele>-1.98</ele>
        <time>2021-11-22T14:12:33.000Z</time>
      </trkpt>
      <trkpt lat="43.60244" lon="4.05522">
        <ele>-1.99</ele>
        <time>2021-11-22T14:12:49.000Z</time>
      </trkpt>
      <trkpt lat="43.60229" lon="4.05539">
        <ele>-3.61</ele>
        <time>2021-11-22T14:13:05.000Z</time>
      </trkpt>
      <trkpt lat="43.60213" lon="4.0555">
        <ele>-3.1</ele>
        <time>2021-11-22T14:13:21.000Z</time>
      </trkpt>
      <trkpt lat="43.60199" lon="4.05567">
        <ele>-1.24</ele>
        <time>2021-11-22T14:13:39.000Z</time>
      </trkpt>
      <trkpt lat="43.60184" lon="4.05584">
        <ele>-1.47</ele>
        <time>2021-11-22T14:13:56.000Z</time>
      </trkpt>
      <trkpt lat="43.60169" lon="4.05599">
        <ele>-2.22</ele>
        <time>2021-11-22T14:14:12.000Z</time>
      </trkpt>
      <trkpt lat="43.60154" lon="4.05616">
        <ele>-1.39</ele>
        <time>2021-11-22T14:14:28.000Z</time>
      </trkpt>
      <trkpt lat="43.60139" lon="4.0563">
        <ele>-1.33</ele>
        <time>2021-11-22T14:15:04.000Z</time>
      </trkpt>
      <trkpt lat="43.60124" lon="4.05646">
        <ele>-1.38</ele>
        <time>2021-11-22T14:15:20.000Z</time>
      </trkpt>
      <trkpt lat="43.6011" lon="4.05664">
        <ele>-1.96</ele>
        <time>2021-11-22T14:15:38.000Z</time>
      </trkpt>
      <trkpt lat="43.60096" lon="4.0568">
        <ele>-2.36</ele>
        <time>2021-11-22T14:15:53.000Z</time>
      </trkpt>
      <trkpt lat="43.60082" lon="4.05695">
        <ele>-2.63</ele>
        <time>2021-11-22T14:16:08.000Z</time>
      </trkpt>
      <trkpt lat="43.60067" lon="4.0571">
        <ele>-1.86</ele>
        <time>2021-11-22T14:16:23.000Z</time>
      </trkpt>
      <trkpt lat="43.60051" lon="4.05725">
        <ele>-2.42</ele>
        <time>2021-11-22T14:16:39.000Z</time>
      </trkpt>
      <trkpt lat="43.60037" lon="4.05743">
        <ele>-2.89</ele>
        <time>2021-11-22T14:16:56.000Z</time>
      </trkpt>
      <trkpt lat="43.60021" lon="4.05757">
        <ele>-4.16</ele>
        <time>2021-11-22T14:17:11.000Z</time>
      </trkpt>
      <trkpt lat="43.60007" lon="4.05773">
        <ele>-4.89</ele>
        <time>2021-11-22T14:17:27.000Z</time>
      </trkpt>
      <trkpt lat="43.59993" lon="4.05789">
        <ele>-3.93</ele>
        <time>2021-11-22T14:17:42.000Z</time>
      </trkpt>
      <trkpt lat="43.59978" lon="4.05804">
        <ele>-4.96</ele>
        <time>2021-11-22T14:17:57.000Z</time>
      </trkpt>
      <trkpt lat="43.59962" lon="4.05818">
        <ele>-4.36</ele>
        <time>2021-11-22T14:18:12.000Z</time>
      </trkpt>
      <trkpt lat="43.59947" lon="4.05832">
        <ele>-3.91</ele>
        <time>2021-11-22T14:18:28.000Z</time>
      </trkpt>
      <trkpt lat="43.59933" lon="4.05849">
        <ele>-1.19</ele>
        <time>2021-11-22T14:18:44.000Z</time>
      </trkpt>
      <trkpt lat="43.59945" lon="4.05867">
        <ele>-1.33</ele>
        <time>2021-11-22T14:19:00.000Z</time>
      </trkpt>
      <trkpt lat="43.59957" lon="4.05887">
        <ele>-1.74</ele>
        <time>2021-11-22T14:19:18.000Z</time>
      </trkpt>
      <trkpt lat="43.59969" lon="4.05906">
        <ele>-2.04</ele>
        <time>2021-11-22T14:19:35.000Z</time>
      </trkpt>
      <trkpt lat="43.59981" lon="4.05925">
        <ele>-1.4</ele>
        <time>2021-11-22T14:19:53.000Z</time>
      </trkpt>
      <trkpt lat="43.59994" lon="4.05945">
        <ele>-2.88</ele>
        <time>2021-11-22T14:20:10.000Z</time>
      </trkpt>
      <trkpt lat="43.59999" lon="4.05971">
        <ele>0.71</ele>
        <time>2021-11-22T14:20:30.000Z</time>
      </trkpt>
      <trkpt lat="43.60016" lon="4.0598">
        <ele>0.19</ele>
        <time>2021-11-22T14:20:55.000Z</time>
      </trkpt>
      <trkpt lat="43.60023" lon="4.06003">
        <ele>-2.87</ele>
        <time>2021-11-22T14:21:15.000Z</time>
      </trkpt>
      <trkpt lat="43.6003" lon="4.06026">
        <ele>-2.78</ele>
        <time>2021-11-22T14:21:34.000Z</time>
      </trkpt>
      <trkpt lat="43.60039" lon="4.06049">
        <ele>-3.31</ele>
        <time>2021-11-22T14:21:53.000Z</time>
      </trkpt>
      <trkpt lat="43.60048" lon="4.06072">
        <ele>-2.66</ele>
        <time>2021-11-22T14:22:10.000Z</time>
      </trkpt>
      <trkpt lat="43.60057" lon="4.06095">
        <ele>-2.13</ele>
        <time>2021-11-22T14:22:27.000Z</time>
      </trkpt>
      <trkpt lat="43.60066" lon="4.06117">
        <ele>-3.5</ele>
        <time>2021-11-22T14:22:45.000Z</time>
      </trkpt>
      <trkpt lat="43.60076" lon="4.0614">
        <ele>-3.2</ele>
        <time>2021-11-22T14:23:03.000Z</time>
      </trkpt>
      <trkpt lat="43.60083" lon="4.06163">
        <ele>-2.8</ele>
        <time>2021-11-22T14:23:21.000Z</time>
      </trkpt>
      <trkpt lat="43.60093" lon="4.06186">
        <ele>-3.63</ele>
        <time>2021-11-22T14:23:40.000Z</time>
      </trkpt>
      <trkpt lat="43.60102" lon="4.06208">
        <ele>-3.66</ele>
        <time>2021-11-22T14:23:58.000Z</time>
      </trkpt>
      <trkpt lat="43.60112" lon="4.0623">
        <ele>-2.89</ele>
        <time>2021-11-22T14:24:15.000Z</time>
      </trkpt>
      <trkpt lat="43.60121" lon="4.06254">
        <ele>-3.05</ele>
        <time>2021-11-22T14:24:32.000Z</time>
      </trkpt>
      <trkpt lat="43.60128" lon="4.06278">
        <ele>-2.05</ele>
        <time>2021-11-22T14:24:50.000Z</time>
      </trkpt>
      <trkpt lat="43.60134" lon="4.06302">
        <ele>-2.53</ele>
        <time>2021-11-22T14:25:08.000Z</time>
      </trkpt>
      <trkpt lat="43.60139" lon="4.06327">
        <ele>-3.19</ele>
        <time>2021-11-22T14:25:25.000Z</time>
      </trkpt>
      <trkpt lat="43.60145" lon="4.0635">
        <ele>-3.66</ele>
        <time>2021-11-22T14:25:42.000Z</time>
      </trkpt>
      <trkpt lat="43.60151" lon="4.06374">
        <ele>-3.04</ele>
        <time>2021-11-22T14:25:59.000Z</time>
      </trkpt>
      <trkpt lat="43.60157" lon="4.06398">
        <ele>-3.9</ele>
        <time>2021-11-22T14:26:17.000Z</time>
      </trkpt>
      <trkpt lat="43.60161" lon="4.06424">
        <ele>-2.49</ele>
        <time>2021-11-22T14:26:38.000Z</time>
      </trkpt>
      <trkpt lat="43.60168" lon="4.06447">
        <ele>-3.17</ele>
        <time>2021-11-22T14:26:55.000Z</time>
      </trkpt>
      <trkpt lat="43.60173" lon="4.06472">
        <ele>-3.42</ele>
        <time>2021-11-22T14:27:12.000Z</time>
      </trkpt>
      <trkpt lat="43.60179" lon="4.06496">
        <ele>-1.5</ele>
        <time>2021-11-22T14:27:55.000Z</time>
      </trkpt>
      <trkpt lat="43.60183" lon="4.06521">
        <ele>-1.68</ele>
        <time>2021-11-22T14:28:13.000Z</time>
      </trkpt>
      <trkpt lat="43.60187" lon="4.06545">
        <ele>-4.75</ele>
        <time>2021-11-22T14:28:32.000Z</time>
      </trkpt>
      <trkpt lat="43.60194" lon="4.06569">
        <ele>-4.68</ele>
        <time>2021-11-22T14:28:49.000Z</time>
      </trkpt>
      <trkpt lat="43.60199" lon="4.06594">
        <ele>-0.2</ele>
        <time>2021-11-22T14:29:06.000Z</time>
      </trkpt>
      <trkpt lat="43.60206" lon="4.06617">
        <ele>-2.2</ele>
        <time>2021-11-22T14:29:26.000Z</time>
      </trkpt>
      <trkpt lat="43.60212" lon="4.06641">
        <ele>-4.25</ele>
        <time>2021-11-22T14:29:45.000Z</time>
      </trkpt>
      <trkpt lat="43.60219" lon="4.06665">
        <ele>-6.31</ele>
        <time>2021-11-22T14:30:05.000Z</time>
      </trkpt>
      <trkpt lat="43.60225" lon="4.0669">
        <ele>-6.91</ele>
        <time>2021-11-22T14:30:24.000Z</time>
      </trkpt>
      <trkpt lat="43.6023" lon="4.06715">
        <ele>-6.88</ele>
        <time>2021-11-22T14:30:43.000Z</time>
      </trkpt>
      <trkpt lat="43.60236" lon="4.06739">
        <ele>-7.11</ele>
        <time>2021-11-22T14:31:01.000Z</time>
      </trkpt>
      <trkpt lat="43.60242" lon="4.06763">
        <ele>-6.17</ele>
        <time>2021-11-22T14:31:19.000Z</time>
      </trkpt>
      <trkpt lat="43.60248" lon="4.06787">
        <ele>-5.79</ele>
        <time>2021-11-22T14:31:36.000Z</time>
      </trkpt>
      <trkpt lat="43.60253" lon="4.06812">
        <ele>-6.12</ele>
        <time>2021-11-22T14:31:55.000Z</time>
      </trkpt>
      <trkpt lat="43.60259" lon="4.06836">
        <ele>-4.48</ele>
        <time>2021-11-22T14:32:12.000Z</time>
      </trkpt>
      <trkpt lat="43.60265" lon="4.0686">
        <ele>-4.47</ele>
        <time>2021-11-22T14:32:30.000Z</time>
      </trkpt>
      <trkpt lat="43.6027" lon="4.06884">
        <ele>-5.44</ele>
        <time>2021-11-22T14:32:48.000Z</time>
      </trkpt>
      <trkpt lat="43.60276" lon="4.06908">
        <ele>-5.19</ele>
        <time>2021-11-22T14:33:06.000Z</time>
      </trkpt>
      <trkpt lat="43.60281" lon="4.06932">
        <ele>-5.32</ele>
        <time>2021-11-22T14:33:25.000Z</time>
      </trkpt>
      <trkpt lat="43.60286" lon="4.06956">
        <ele>-4.65</ele>
        <time>2021-11-22T14:33:43.000Z</time>
      </trkpt>
      <trkpt lat="43.60292" lon="4.0698">
        <ele>-3.76</ele>
        <time>2021-11-22T14:34:01.000Z</time>
      </trkpt>
      <trkpt lat="43.60297" lon="4.07005">
        <ele>-5.08</ele>
        <time>2021-11-22T14:34:20.000Z</time>
      </trkpt>
      <trkpt lat="43.60299" lon="4.0703">
        <ele>-4.97</ele>
        <time>2021-11-22T14:34:37.000Z</time>
      </trkpt>
      <trkpt lat="43.60299" lon="4.07056">
        <ele>-4.24</ele>
        <time>2021-11-22T14:34:55.000Z</time>
      </trkpt>
      <trkpt lat="43.603" lon="4.07082">
        <ele>-2.46</ele>
        <time>2021-11-22T14:35:21.000Z</time>
      </trkpt>
      <trkpt lat="43.60299" lon="4.07107">
        <ele>-2.3</ele>
        <time>2021-11-22T14:35:37.000Z</time>
      </trkpt>
      <trkpt lat="43.603" lon="4.07134">
        <ele>-1.63</ele>
        <time>2021-11-22T14:35:54.000Z</time>
      </trkpt>
      <trkpt lat="43.60301" lon="4.0716">
        <ele>-0.33</ele>
        <time>2021-11-22T14:36:10.000Z</time>
      </trkpt>
      <trkpt lat="43.603" lon="4.07186">
        <ele>-0.97</ele>
        <time>2021-11-22T14:36:27.000Z</time>
      </trkpt>
      <trkpt lat="43.60318" lon="4.07189">
        <ele>-0.87</ele>
        <time>2021-11-22T14:37:31.000Z</time>
      </trkpt>
      <trkpt lat="43.60334" lon="4.07175">
        <ele>-1.63</ele>
        <time>2021-11-22T14:37:49.000Z</time>
      </trkpt>
      <trkpt lat="43.60351" lon="4.07163">
        <ele>-1.06</ele>
        <time>2021-11-22T14:38:07.000Z</time>
      </trkpt>
      <trkpt lat="43.60368" lon="4.07151">
        <ele>0.35</ele>
        <time>2021-11-22T14:38:23.000Z</time>
      </trkpt>
      <trkpt lat="43.60384" lon="4.07139">
        <ele>0.72</ele>
        <time>2021-11-22T14:38:40.000Z</time>
      </trkpt>
      <trkpt lat="43.604" lon="4.07128">
        <ele>0.42</ele>
        <time>2021-11-22T14:38:57.000Z</time>
      </trkpt>
      <trkpt lat="43.60417" lon="4.07116">
        <ele>1.33</ele>
        <time>2021-11-22T14:39:24.000Z</time>
      </trkpt>
      <trkpt lat="43.60432" lon="4.07104">
        <ele>0.22</ele>
        <time>2021-11-22T14:39:41.000Z</time>
      </trkpt>
      <trkpt lat="43.60449" lon="4.07092">
        <ele>-0.23</ele>
        <time>2021-11-22T14:39:58.000Z</time>
      </trkpt>
      <trkpt lat="43.60466" lon="4.07079">
        <ele>0.2</ele>
        <time>2021-11-22T14:40:16.000Z</time>
      </trkpt>
      <trkpt lat="43.60482" lon="4.07068">
        <ele>-1.02</ele>
        <time>2021-11-22T14:40:34.000Z</time>
      </trkpt>
      <trkpt lat="43.60498" lon="4.07056">
        <ele>-2.32</ele>
        <time>2021-11-22T14:40:54.000Z</time>
      </trkpt>
      <trkpt lat="43.60515" lon="4.07044">
        <ele>-0.09</ele>
        <time>2021-11-22T14:41:12.000Z</time>
      </trkpt>
      <trkpt lat="43.60531" lon="4.07031">
        <ele>-0.74</ele>
        <time>2021-11-22T14:41:32.000Z</time>
      </trkpt>
      <trkpt lat="43.60547" lon="4.07018">
        <ele>-0.48</ele>
        <time>2021-11-22T14:41:55.000Z</time>
      </trkpt>
      <trkpt lat="43.60564" lon="4.07007">
        <ele>0.89</ele>
        <time>2021-11-22T14:42:19.000Z</time>
      </trkpt>
      <trkpt lat="43.6058" lon="4.06994">
        <ele>-0.46</ele>
        <time>2021-11-22T14:42:37.000Z</time>
      </trkpt>
      <trkpt lat="43.60597" lon="4.06981">
        <ele>-1.72</ele>
        <time>2021-11-22T14:42:56.000Z</time>
      </trkpt>
      <trkpt lat="43.60613" lon="4.06969">
        <ele>-2.14</ele>
        <time>2021-11-22T14:43:15.000Z</time>
      </trkpt>
      <trkpt lat="43.60629" lon="4.06955">
        <ele>-3.86</ele>
        <time>2021-11-22T14:43:35.000Z</time>
      </trkpt>
      <trkpt lat="43.60646" lon="4.06944">
        <ele>-4.53</ele>
        <time>2021-11-22T14:43:58.000Z</time>
      </trkpt>
      <trkpt lat="43.60662" lon="4.06932">
        <ele>-3.88</ele>
        <time>2021-11-22T14:44:17.000Z</time>
      </trkpt>
      <trkpt lat="43.60678" lon="4.06919">
        <ele>-4.15</ele>
        <time>2021-11-22T14:44:35.000Z</time>
      </trkpt>
      <trkpt lat="43.60694" lon="4.06908">
        <ele>-3.04</ele>
        <time>2021-11-22T14:44:51.000Z</time>
      </trkpt>
      <trkpt lat="43.60711" lon="4.06897">
        <ele>-3.98</ele>
        <time>2021-11-22T14:45:13.000Z</time>
      </trkpt>
      <trkpt lat="43.60727" lon="4.06883">
        <ele>-6.95</ele>
        <time>2021-11-22T14:45:32.000Z</time>
      </trkpt>
      <trkpt lat="43.60743" lon="4.06871">
        <ele>-6.52</ele>
        <time>2021-11-22T14:45:49.000Z</time>
      </trkpt>
      <trkpt lat="43.6076" lon="4.06858">
        <ele>-5.61</ele>
        <time>2021-11-22T14:46:07.000Z</time>
      </trkpt>
      <trkpt lat="43.60777" lon="4.06846">
        <ele>-6.26</ele>
        <time>2021-11-22T14:46:25.000Z</time>
      </trkpt>
      <trkpt lat="43.60793" lon="4.06834">
        <ele>-5.03</ele>
        <time>2021-11-22T14:46:43.000Z</time>
      </trkpt>
      <trkpt lat="43.6081" lon="4.06823">
        <ele>-3.58</ele>
        <time>2021-11-22T14:47:01.000Z</time>
      </trkpt>
      <trkpt lat="43.60825" lon="4.06809">
        <ele>-5.63</ele>
        <time>2021-11-22T14:47:19.000Z</time>
      </trkpt>
      <trkpt lat="43.60842" lon="4.06797">
        <ele>-4.46</ele>
        <time>2021-11-22T14:47:36.000Z</time>
      </trkpt>
      <trkpt lat="43.60859" lon="4.06786">
        <ele>-5.84</ele>
        <time>2021-11-22T14:47:53.000Z</time>
      </trkpt>
      <trkpt lat="43.60875" lon="4.06774">
        <ele>-3.92</ele>
        <time>2021-11-22T14:48:11.000Z</time>
      </trkpt>
      <trkpt lat="43.60891" lon="4.06763">
        <ele>-4.8</ele>
        <time>2021-11-22T14:48:29.000Z</time>
      </trkpt>
      <trkpt lat="43.60904" lon="4.06745">
        <ele>-5.24</ele>
        <time>2021-11-22T14:49:06.000Z</time>
      </trkpt>
      <trkpt lat="43.60898" lon="4.0672">
        <ele>-2.45</ele>
        <time>2021-11-22T14:49:21.000Z</time>
      </trkpt>
      <trkpt lat="43.60889" lon="4.06697">
        <ele>-0.89</ele>
        <time>2021-11-22T14:49:36.000Z</time>
      </trkpt>
      <trkpt lat="43.6088" lon="4.06674">
        <ele>0.95</ele>
        <time>2021-11-22T14:49:51.000Z</time>
      </trkpt>
      <trkpt lat="43.60875" lon="4.0665">
        <ele>1.72</ele>
        <time>2021-11-22T14:50:07.000Z</time>
      </trkpt>
      <trkpt lat="43.6089" lon="4.06636">
        <ele>0.59</ele>
        <time>2021-11-22T14:50:24.000Z</time>
      </trkpt>
      <trkpt lat="43.60908" lon="4.06625">
        <ele>0.78</ele>
        <time>2021-11-22T14:50:39.000Z</time>
      </trkpt>
      <trkpt lat="43.60925" lon="4.06615">
        <ele>0.77</ele>
        <time>2021-11-22T14:50:54.000Z</time>
      </trkpt>
      <trkpt lat="43.60942" lon="4.06605">
        <ele>1.6</ele>
        <time>2021-11-22T14:51:09.000Z</time>
      </trkpt>
      <trkpt lat="43.6096" lon="4.06602">
        <ele>3.13</ele>
        <time>2021-11-22T14:51:25.000Z</time>
      </trkpt>
      <trkpt lat="43.60977" lon="4.06613">
        <ele>0.59</ele>
        <time>2021-11-22T14:51:44.000Z</time>
      </trkpt>
      <trkpt lat="43.60992" lon="4.06627">
        <ele>-0.2</ele>
        <time>2021-11-22T14:52:02.000Z</time>
      </trkpt>
      <trkpt lat="43.60999" lon="4.06651">
        <ele>-1.59</ele>
        <time>2021-11-22T14:52:18.000Z</time>
      </trkpt>
      <trkpt lat="43.61006" lon="4.06675">
        <ele>-2.03</ele>
        <time>2021-11-22T14:52:34.000Z</time>
      </trkpt>
      <trkpt lat="43.61013" lon="4.06699">
        <ele>-1.83</ele>
        <time>2021-11-22T14:52:56.000Z</time>
      </trkpt>
      <trkpt lat="43.6102" lon="4.06722">
        <ele>-2.01</ele>
        <time>2021-11-22T14:53:13.000Z</time>
      </trkpt>
      <trkpt lat="43.61023" lon="4.06747">
        <ele>2.09</ele>
        <time>2021-11-22T14:53:34.000Z</time>
      </trkpt>
      <trkpt lat="43.61031" lon="4.0677">
        <ele>-0.43</ele>
        <time>2021-11-22T14:53:54.000Z</time>
      </trkpt>
      <trkpt lat="43.61042" lon="4.06791">
        <ele>1.46</ele>
        <time>2021-11-22T14:54:14.000Z</time>
      </trkpt>
    </trkseg>
  </trk>
</gpx>